createdAt,value
2023-05-10T00:01:04.635Z,95594.73
2023-05-10T00:03:33.953Z,95590.33
2023-05-10T00:06:02.620Z,95580.60
2023-05-10T00:08:31.210Z,95587.11
2023-05-10T00:10:59.922Z,95587.97
2023-05-10T00:13:28.714Z,95585.92
2023-05-10T00:15:57.570Z,95583.62
2023-05-10T00:18:26.352Z,95582.62
2023-05-10T00:20:55.277Z,95580.52
2023-05-10T00:23:24.020Z,95579.81
2023-05-10T00:25:54.241Z,95574.48
2023-05-10T00:28:22.864Z,95576.17
2023-05-10T00:30:51.615Z,95572.69
2023-05-10T00:33:20.304Z,95570.77
2023-05-10T00:35:49.278Z,95577.77
2023-05-10T00:38:17.878Z,95579.57
2023-05-10T00:40:46.615Z,95574.41
2023-05-10T00:43:15.390Z,95579.31
2023-05-10T00:45:44.162Z,95572.23
2023-05-10T00:48:12.817Z,95569.99
2023-05-10T00:50:41.722Z,95568.81
2023-05-10T00:53:11.323Z,95568.09
2023-05-10T00:55:40.191Z,95571.38
2023-05-10T00:58:09.066Z,95566.71
2023-05-10T01:00:39.940Z,95563.34
2023-05-10T01:03:08.753Z,95565.94
2023-05-10T01:05:37.623Z,95566.12
2023-05-10T01:08:07.273Z,95566.98
2023-05-10T01:10:36.488Z,95563.55
2023-05-10T01:13:05.384Z,95562.07
2023-05-10T01:15:34.290Z,95559.97
2023-05-10T01:18:04.144Z,95558.44
2023-05-10T01:20:35.792Z,95559.61
2023-05-10T01:23:16.409Z,95557.02
2023-05-10T01:26:00.110Z,95556.45
2023-05-10T01:28:47.859Z,95552.87
2023-05-10T01:31:45.196Z,95550.41
2023-05-10T01:34:23.154Z,95546.84
2023-05-10T01:36:54.743Z,95544.47
2023-05-10T01:39:51.184Z,95548.47
2023-05-10T01:42:25.470Z,95547.34
2023-05-10T01:44:59.888Z,95544.63
2023-05-10T01:47:51.096Z,95539.97
2023-05-10T01:50:29.715Z,95536.61
2023-05-10T01:53:01.473Z,95535.07
2023-05-10T01:55:32.942Z,95536.61
2023-05-10T01:58:07.664Z,95536.34
2023-05-10T02:00:37.506Z,95537.73
2023-05-10T02:03:09.657Z,95537.27
2023-05-10T02:05:40.897Z,95540.19
2023-05-10T02:08:11.676Z,95538.64
2023-05-10T02:10:42.720Z,95542.13
2023-05-10T02:13:13.285Z,95538.70
2023-05-10T02:15:43.654Z,95541.36
2023-05-10T02:18:14.711Z,95541.98
2023-05-10T02:20:46.056Z,95542.89
2023-05-10T02:23:16.074Z,95542.95
2023-05-10T02:25:46.658Z,95547.80
2023-05-10T02:28:16.800Z,95546.31
2023-05-10T02:30:46.003Z,95542.16
2023-05-10T02:33:15.667Z,95548.09
2023-05-10T02:35:44.717Z,95532.50
2023-05-10T02:38:13.657Z,95551.19
2023-05-10T02:40:44.883Z,95547.10
2023-05-10T02:43:16.233Z,95543.26
2023-05-10T02:45:47.252Z,95543.51
2023-05-10T02:48:16.299Z,95548.44
2023-05-10T02:50:47.914Z,95547.42
2023-05-10T02:53:20.195Z,95545.74
2023-05-10T02:55:51.965Z,95541.80
2023-05-10T02:58:23.651Z,95537.74
2023-05-10T03:00:53.636Z,95537.04
2023-05-10T03:03:23.158Z,95544.38
2023-05-10T03:05:57.120Z,95541.44
2023-05-10T03:08:26.460Z,95549.27
2023-05-10T03:11:13.164Z,95543.92
2023-05-10T03:13:53.893Z,95533.26
2023-05-10T03:16:26.556Z,95546.74
2023-05-10T03:19:02.610Z,95544.20
2023-05-10T03:21:31.777Z,95542.80
2023-05-10T03:24:06.493Z,95539.52
2023-05-10T03:26:37.580Z,95549.69
2023-05-10T03:29:15.009Z,95551.08
2023-05-10T03:31:44.034Z,95558.55
2023-05-10T03:34:12.629Z,95558.18
2023-05-10T03:36:41.316Z,95558.98
2023-05-10T03:39:10.068Z,95558.73
2023-05-10T03:41:41.488Z,95541.56
2023-05-10T03:44:16.190Z,95561.19
2023-05-10T03:46:45.590Z,95563.59
2023-05-10T03:49:20.566Z,95560.70
2023-05-10T03:51:50.937Z,95560.48
2023-05-10T03:54:19.642Z,95562.75
2023-05-10T03:56:58.735Z,95565.37
2023-05-10T03:59:29.995Z,95565.69
2023-05-10T04:01:58.997Z,95568.14
2023-05-10T04:04:27.737Z,95534.80
2023-05-10T04:07:04.821Z,95579.13
2023-05-10T04:09:33.592Z,95577.46
2023-05-10T04:12:05.615Z,95575.66
2023-05-10T04:14:38.315Z,95583.27
2023-05-10T04:17:11.730Z,95581.70
2023-05-10T04:19:40.634Z,95578.14
2023-05-10T04:22:12.284Z,95583.08
2023-05-10T04:24:40.881Z,95584.27
2023-05-10T04:27:09.490Z,95580.13
2023-05-10T04:29:38.128Z,95583.45
2023-05-10T04:32:07.619Z,95590.34
2023-05-10T04:34:36.381Z,95580.06
2023-05-10T04:37:06.583Z,95582.47
2023-05-10T04:39:36.131Z,95586.17
2023-05-10T04:42:06.883Z,95587.36
2023-05-10T04:44:44.117Z,95585.40
2023-05-10T04:47:14.224Z,95588.69
2023-05-10T04:49:42.851Z,95583.11
2023-05-10T04:52:12.381Z,95580.91
2023-05-10T04:54:41.112Z,95587.30
2023-05-10T04:57:09.659Z,95581.70
2023-05-10T04:59:38.913Z,95588.27
2023-05-10T05:02:10.359Z,95582.44
2023-05-10T05:04:38.958Z,95586.22
2023-05-10T05:07:07.641Z,95585.11
2023-05-10T05:09:38.974Z,95587.36
2023-05-10T05:12:07.837Z,95591.97
2023-05-10T05:14:36.606Z,95593.30
2023-05-10T05:17:05.160Z,95591.55
2023-05-10T05:19:36.780Z,95597.45
2023-05-10T05:22:05.467Z,95595.28
2023-05-10T05:24:39.883Z,95599.21
2023-05-10T05:27:08.580Z,95597.00
2023-05-10T05:29:37.268Z,95593.16
2023-05-10T05:32:06.249Z,95600.67
2023-05-10T05:34:36.659Z,95606.50
2023-05-10T05:37:05.540Z,95603.33
2023-05-10T05:39:34.260Z,95608.65
2023-05-10T05:42:03.039Z,95594.75
2023-05-10T05:47:11.742Z,95607.95
2023-05-10T05:49:41.825Z,95608.91
2023-05-10T05:52:10.671Z,95606.55
2023-05-10T05:54:39.438Z,95610.88
2023-05-10T05:57:08.618Z,95616.10
2023-05-10T05:59:41.636Z,95612.61
2023-05-10T06:02:24.307Z,95610.36
2023-05-10T06:04:54.326Z,95614.35
2023-05-10T06:10:21.415Z,95611.73
2023-05-10T06:12:46.200Z,95618.09
2023-05-10T06:15:19.570Z,95621.42
2023-05-10T06:18:02.497Z,95532.15
2023-05-10T06:20:37.724Z,95629.24
2023-05-10T06:23:10.377Z,95626.86
2023-05-10T06:25:46.425Z,95588.89
2023-05-10T06:28:15.272Z,95630.97
2023-05-10T06:31:08.009Z,95633.86
2023-05-10T06:36:42.719Z,95631.08
2023-05-10T06:39:13.346Z,95629.64
2023-05-10T06:41:41.946Z,95629.96
2023-05-10T06:44:14.542Z,95636.15
2023-05-10T06:46:44.416Z,95634.92
2023-05-10T06:49:16.778Z,95628.88
2023-05-10T06:51:46.961Z,95618.64
2023-05-10T06:56:56.426Z,95626.98
2023-05-10T06:59:26.592Z,95631.59
2023-05-10T07:01:58.036Z,95634.61
2023-05-10T07:04:28.774Z,95645.26
2023-05-10T07:07:10.180Z,95634.75
2023-05-10T07:09:42.974Z,95643.27
2023-05-10T07:12:13.399Z,95646.88
2023-05-10T07:14:42.075Z,95641.56
2023-05-10T07:17:11.033Z,95646.97
2023-05-10T07:19:39.658Z,95644.50
2023-05-10T07:22:10.087Z,95638.89
2023-05-10T07:24:42.944Z,95642.00
2023-05-10T07:27:20.212Z,95648.84
2023-05-10T07:29:49.735Z,95641.91
2023-05-10T07:32:18.410Z,95645.59
2023-05-10T07:34:48.600Z,95659.84
2023-05-10T07:37:19.282Z,95641.34
2023-05-10T07:39:47.975Z,95656.48
2023-05-10T07:42:16.788Z,95658.22
2023-05-10T07:44:49.102Z,95658.84
2023-05-10T07:47:22.193Z,95660.25
2023-05-10T07:49:51.133Z,95660.98
2023-05-10T07:52:24.568Z,95660.69
2023-05-10T07:54:56.261Z,95649.46
2023-05-10T07:57:25.570Z,95653.33
2023-05-10T07:59:55.956Z,95657.17
2023-05-10T08:02:25.698Z,95671.40
2023-05-10T08:04:56.581Z,95668.33
2023-05-10T08:07:27.175Z,95666.48
2023-05-10T08:09:55.877Z,95662.71
2023-05-10T08:12:24.503Z,95664.24
2023-05-10T08:14:53.145Z,95669.34
2023-05-10T08:17:22.837Z,95664.77
2023-05-10T08:19:54.830Z,95663.36
2023-05-10T08:22:26.508Z,95662.95
2023-05-10T08:24:55.257Z,95660.36
2023-05-10T08:27:23.948Z,95665.17
2023-05-10T08:29:54.064Z,95673.20
2023-05-10T08:32:23.572Z,95664.00
2023-05-10T08:34:52.127Z,95669.26
2023-05-10T08:37:25.693Z,95674.03
2023-05-10T08:39:54.538Z,95680.05
2023-05-10T08:42:33.755Z,95663.92
2023-05-10T08:45:17.200Z,95622.14
2023-05-10T08:47:51.183Z,95677.20
2023-05-10T08:50:22.986Z,95675.28
2023-05-10T08:52:56.872Z,95672.28
2023-05-10T08:55:30.219Z,95679.81
2023-05-10T08:58:16.711Z,95678.50
2023-05-10T09:00:47.724Z,95670.01
2023-05-10T09:03:16.965Z,95674.20
2023-05-10T09:05:49.093Z,95673.19
2023-05-10T09:08:19.354Z,95671.98
2023-05-10T09:10:51.439Z,95667.84
2023-05-10T09:13:22.969Z,95672.28
2023-05-10T09:15:54.671Z,95675.28
2023-05-10T09:18:26.613Z,95670.81
2023-05-10T09:20:53.609Z,95675.20
2023-05-10T09:23:22.408Z,95669.06
2023-05-10T09:25:52.923Z,95667.92
2023-05-10T09:28:21.687Z,95667.38
2023-05-10T09:30:53.424Z,95672.88
2023-05-10T09:33:27.198Z,95662.39
2023-05-10T09:35:57.707Z,95658.78
2023-05-10T09:38:26.558Z,95657.05
2023-05-10T09:40:55.681Z,95658.47
2023-05-10T09:43:26.417Z,95662.04
2023-05-10T09:45:55.140Z,95656.30
2023-05-10T09:48:25.592Z,95657.41
2023-05-10T09:50:59.366Z,95656.39
2023-05-10T09:53:31.122Z,95653.45
2023-05-10T09:55:59.700Z,95650.39
2023-05-10T09:58:28.777Z,95651.34
2023-05-10T10:00:57.932Z,95655.73
2023-05-10T10:03:29.676Z,95648.84
2023-05-10T10:05:57.698Z,95653.08
2023-05-10T10:08:27.145Z,95640.38
2023-05-10T10:10:55.887Z,95640.09
2023-05-10T10:13:35.913Z,95641.18
2023-05-10T10:16:08.878Z,95638.94
2023-05-10T10:18:47.664Z,95624.98
2023-05-10T10:21:23.287Z,95626.66
2023-05-10T10:23:57.292Z,95624.84
2023-05-10T10:26:34.932Z,95621.66
2023-05-10T10:29:13.884Z,95628.70
2023-05-10T10:31:46.104Z,95628.55
2023-05-10T10:34:32.231Z,95622.36
2023-05-10T10:37:04.190Z,95628.22
2023-05-10T10:39:38.918Z,95627.23
2023-05-10T10:42:12.262Z,95628.25
2023-05-10T10:44:42.959Z,95625.61
2023-05-10T10:47:27.930Z,95628.42
2023-05-10T10:50:13.748Z,95624.84
2023-05-10T10:52:44.031Z,95633.37
2023-05-10T10:55:15.671Z,95629.92
2023-05-10T10:57:57.610Z,95623.46
2023-05-10T11:00:34.501Z,95626.58
2023-05-10T11:03:09.308Z,95625.77
2023-05-10T11:05:53.314Z,95626.66
2023-05-10T11:08:38.195Z,95629.39
2023-05-10T11:11:16.998Z,95630.82
2023-05-10T11:13:51.343Z,95616.24
2023-05-10T11:16:25.646Z,95625.16
2023-05-10T11:19:09.449Z,95625.45
2023-05-10T11:21:55.880Z,95622.01
2023-05-10T11:24:30.104Z,95624.37
2023-05-10T11:26:59.351Z,95626.39
2023-05-10T11:29:28.403Z,95626.66
2023-05-10T11:38:07.942Z,95629.51
2023-05-10T11:40:40.372Z,95625.87
2023-05-10T11:43:14.650Z,95632.76
2023-05-10T11:45:55.147Z,95633.00
2023-05-10T11:48:34.137Z,95620.98
2023-05-10T11:51:08.465Z,95624.65
2023-05-10T11:53:38.003Z,95629.44
2023-05-10T11:56:12.422Z,95621.19
2023-05-10T11:58:51.182Z,95596.69
2023-05-10T12:01:26.788Z,95619.11
2023-05-10T12:04:02.189Z,95615.88
2023-05-10T12:07:13.669Z,95613.80
2023-05-10T12:09:39.687Z,95619.20
2023-05-10T12:11:58.467Z,95620.54
2023-05-10T12:14:36.811Z,95615.59
2023-05-10T12:17:07.452Z,95607.17
2023-05-10T12:19:45.208Z,95607.73
2023-05-10T12:22:14.343Z,95613.78
2023-05-10T12:25:01.521Z,95609.59
2023-05-10T12:27:36.983Z,95610.23
2023-05-10T12:30:01.073Z,95533.66
2023-05-10T12:32:50.850Z,95600.03
2023-05-10T12:41:52.337Z,95598.08
2023-05-10T12:44:31.107Z,95590.72
2023-05-10T12:47:01.675Z,95590.03
2023-05-10T12:52:38.652Z,95582.74
2023-05-10T12:55:10.114Z,95579.48
2023-05-10T12:57:39.203Z,95583.00
2023-05-10T13:00:09.698Z,95579.86
2023-05-10T13:02:40.774Z,95581.08
2023-05-10T13:05:13.398Z,95577.20
2023-05-10T13:07:53.333Z,95574.03
2023-05-10T13:10:33.709Z,95573.81
2023-05-10T13:13:04.552Z,95569.25
2023-05-10T13:15:36.516Z,95567.78
2023-05-10T13:18:11.545Z,95565.55
2023-05-10T13:20:37.899Z,95565.97
2023-05-10T13:23:11.860Z,95560.18
2023-05-10T13:25:40.776Z,95557.94
2023-05-10T13:28:09.812Z,95554.11
2023-05-10T13:30:45.195Z,95555.36
2023-05-10T13:33:14.076Z,95555.08
2023-05-10T13:35:44.131Z,95554.84
2023-05-10T13:39:23.397Z,95553.11
2023-05-10T13:41:04.886Z,95547.43
2023-05-10T13:43:37.212Z,95546.72
2023-05-10T13:46:03.746Z,95532.42
2023-05-10T13:48:38.180Z,95536.34
2023-05-10T13:51:24.307Z,95542.84
2023-05-10T13:53:53.209Z,95542.04
2023-05-10T13:56:42.062Z,95540.83
2023-05-10T13:59:10.732Z,95543.98
2023-05-10T14:01:39.498Z,95546.57
2023-05-10T14:04:09.970Z,95537.92
2023-05-10T14:06:39.145Z,95543.22
2023-05-10T14:09:07.922Z,95542.52
2023-05-10T14:11:36.667Z,95533.87
2023-05-10T14:14:07.117Z,95540.68
2023-05-10T14:16:35.983Z,95541.43
2023-05-10T14:19:06.206Z,95539.36
2023-05-10T14:21:35.203Z,95472.17
2023-05-10T14:24:04.028Z,95539.64
2023-05-10T14:26:32.734Z,95539.58
2023-05-10T14:29:10.029Z,95544.93
2023-05-10T14:31:36.334Z,95538.31
2023-05-10T14:34:04.952Z,95553.94
2023-05-10T14:36:35.363Z,95545.62
2023-05-10T14:39:04.024Z,95539.21
2023-05-10T14:41:32.867Z,95538.25
2023-05-10T14:46:50.876Z,95533.42
2023-05-10T14:49:28.747Z,95532.05
2023-05-10T14:54:54.518Z,95535.92
2023-05-10T14:57:26.265Z,95540.44
2023-05-10T14:59:55.672Z,95547.17
2023-05-10T15:05:19.576Z,95543.40
2023-05-10T15:07:48.856Z,95536.00
2023-05-10T15:10:20.999Z,95536.20
2023-05-10T15:12:49.784Z,95533.89
2023-05-10T15:15:24.005Z,95529.95
2023-05-10T15:17:53.980Z,95519.99
2023-05-10T15:20:22.765Z,95521.02
2023-05-10T15:22:51.788Z,95522.89
2023-05-10T15:25:20.829Z,95518.90
2023-05-10T15:27:50.227Z,95513.77
2023-05-10T15:30:18.913Z,95513.20
2023-05-10T15:32:49.335Z,95518.60
2023-05-10T15:35:20.693Z,95509.74
2023-05-10T15:37:52.419Z,95478.98
2023-05-10T15:43:29.776Z,95519.98
2023-05-10T15:46:20.945Z,95516.92
2023-05-10T15:48:54.844Z,95449.16
2023-05-10T15:51:30.198Z,95518.58
2023-05-10T15:54:07.724Z,95517.61
2023-05-10T15:56:35.338Z,95515.52
2023-05-10T15:59:07.686Z,95517.32
2023-05-10T16:01:36.448Z,95518.52
2023-05-10T16:04:05.255Z,95518.16
2023-05-10T16:06:34.280Z,95514.13
2023-05-10T16:09:03.175Z,95517.98
2023-05-10T16:11:38.564Z,95517.44
2023-05-10T16:14:31.203Z,95520.55
2023-05-10T16:16:59.936Z,95523.75
2023-05-10T16:19:29.834Z,95525.09
2023-05-10T16:21:58.845Z,95521.28
2023-05-10T16:24:28.096Z,95520.73
2023-05-10T16:26:58.416Z,95517.70
2023-05-10T16:29:27.144Z,95520.55
2023-05-10T16:31:55.868Z,95515.03
2023-05-10T16:34:25.460Z,95516.99
2023-05-10T16:36:54.237Z,95524.27
2023-05-10T16:39:22.903Z,95528.27
2023-05-10T16:41:51.577Z,95520.39
2023-05-10T16:44:21.069Z,95526.16
2023-05-10T16:46:51.246Z,95526.27
2023-05-10T16:49:20.037Z,95523.30
2023-05-10T16:51:54.771Z,95512.34
2023-05-10T16:57:14.063Z,95525.45
2023-05-10T17:00:29.812Z,95533.95
2023-05-10T17:02:51.321Z,95534.86
2023-05-10T17:05:24.436Z,95531.89
2023-05-10T17:07:56.254Z,95532.63
2023-05-10T17:10:25.096Z,95533.20
2023-05-10T17:12:53.821Z,95529.63
2023-05-10T17:15:22.610Z,95532.54
2023-05-10T17:17:51.337Z,95533.45
2023-05-10T17:20:20.356Z,95528.94
2023-05-10T17:22:52.073Z,95533.64
2023-05-10T17:25:20.844Z,95530.58
2023-05-10T17:27:49.529Z,95535.81
2023-05-10T17:30:19.878Z,95534.09
2023-05-10T17:32:48.509Z,95535.42
2023-05-10T17:35:17.503Z,95536.39
2023-05-10T17:37:48.849Z,95527.25
2023-05-10T17:40:18.192Z,95543.53
2023-05-10T17:42:53.364Z,95541.26
2023-05-10T17:45:19.255Z,95545.27
2023-05-10T17:47:48.272Z,95547.93
2023-05-10T17:50:18.457Z,95550.56
2023-05-10T17:52:47.627Z,95550.66
2023-05-10T17:55:16.797Z,95554.39
2023-05-10T17:57:51.134Z,95555.63
2023-05-10T18:00:21.843Z,95558.59
2023-05-10T18:03:47.155Z,95558.80
2023-05-10T18:06:14.969Z,95544.45
2023-05-10T18:08:48.402Z,95564.87
2023-05-10T18:17:35.833Z,95574.27
2023-05-10T18:20:06.441Z,95580.57
2023-05-10T18:25:27.123Z,95577.23
2023-05-10T18:28:00.053Z,95579.94
2023-05-10T18:30:35.977Z,95581.47
2023-05-10T18:33:24.143Z,95587.33
2023-05-10T18:35:55.923Z,95589.89
2023-05-10T18:42:30.042Z,95568.13
2023-05-10T18:47:46.230Z,95593.23
2023-05-10T18:50:23.257Z,95601.80
2023-05-10T18:53:24.393Z,95602.00
2023-05-10T18:59:29.766Z,95602.50
2023-05-10T19:01:58.387Z,95598.86
2023-05-10T19:10:47.877Z,95597.16
2023-05-10T19:13:24.424Z,95603.73
2023-05-10T19:16:05.289Z,95600.10
2023-05-10T19:19:06.733Z,95600.03
2023-05-10T19:21:50.890Z,95600.59
2023-05-10T19:24:31.340Z,95602.11
2023-05-10T19:27:16.054Z,95603.37
2023-05-10T19:29:57.521Z,95577.05
2023-05-10T19:32:30.115Z,95607.24
2023-05-10T19:38:22.035Z,95607.65
2023-05-10T19:40:40.621Z,95605.09
2023-05-10T19:43:14.159Z,95587.42
2023-05-10T19:49:13.358Z,95610.94
2023-05-10T19:52:30.981Z,95609.60
2023-05-10T19:58:03.264Z,95599.74
2023-05-10T20:01:16.858Z,95593.80
2023-05-10T20:04:03.828Z,95590.20
2023-05-10T20:06:36.458Z,95589.70
2023-05-10T20:09:11.917Z,95588.27
2023-05-10T20:11:52.753Z,95588.76
2023-05-10T20:14:29.643Z,95589.73
2023-05-10T20:16:59.716Z,95588.55
2023-05-10T20:19:39.985Z,95584.16
2023-05-10T20:22:16.161Z,95586.92
2023-05-10T20:24:55.833Z,95581.25
2023-05-10T20:27:31.409Z,95580.58
2023-05-10T20:30:05.185Z,95586.14
2023-05-10T20:32:41.088Z,95584.38
2023-05-10T20:35:10.932Z,95585.23
2023-05-10T20:37:55.808Z,95587.61
2023-05-10T20:40:20.841Z,95589.05
2023-05-10T20:43:26.651Z,95591.36
2023-05-10T20:46:10.520Z,95594.06
2023-05-10T20:48:43.800Z,95592.33
2023-05-10T20:51:18.234Z,95593.10
2023-05-10T20:53:54.761Z,95585.70
2023-05-10T20:56:25.654Z,95587.56
2023-05-10T20:58:54.299Z,95582.42
2023-05-10T21:01:23.251Z,95582.88
2023-05-10T21:03:52.051Z,95584.26
2023-05-10T21:06:20.675Z,95580.27
2023-05-10T21:08:49.393Z,95584.78
2023-05-10T21:11:18.177Z,95589.55
2023-05-10T21:13:49.995Z,95582.50
2023-05-10T21:16:20.374Z,95583.91
2023-05-10T21:18:50.782Z,95584.12
2023-05-10T21:21:19.498Z,95582.16
2023-05-10T21:23:50.693Z,95586.72
2023-05-10T21:26:21.761Z,95581.23
2023-05-10T21:28:50.625Z,95585.59
2023-05-10T21:31:19.280Z,95584.06
2023-05-10T21:33:48.017Z,95588.11
2023-05-10T21:36:16.809Z,95581.41
2023-05-10T21:38:45.528Z,95585.17
2023-05-10T21:41:14.229Z,95586.73
2023-05-10T21:43:42.846Z,95586.50
2023-05-10T21:46:13.588Z,95586.94
2023-05-10T21:48:45.296Z,95582.22
2023-05-10T21:51:14.151Z,95582.42
2023-05-10T21:53:43.112Z,95586.94
2023-05-10T21:56:11.981Z,95580.26
2023-05-10T21:58:40.696Z,95585.75
2023-05-10T22:01:09.434Z,95576.06
2023-05-10T22:03:38.407Z,95582.27
2023-05-10T22:06:09.570Z,95573.66
2023-05-10T22:08:38.319Z,95579.49
2023-05-10T22:11:07.127Z,95581.78
2023-05-10T22:13:35.961Z,95583.61
2023-05-10T22:16:04.752Z,95585.03
2023-05-10T22:18:34.324Z,95581.59
2023-05-10T22:21:03.006Z,95583.41
2023-05-10T22:23:31.756Z,95578.84
2023-05-10T22:26:06.623Z,95579.70
2023-05-10T22:28:35.448Z,95575.75
2023-05-10T22:31:04.284Z,95577.55
2023-05-10T22:33:32.989Z,95573.76
2023-05-10T22:36:01.685Z,95572.69
2023-05-10T22:38:30.501Z,95578.17
2023-05-10T22:40:59.232Z,95569.78
2023-05-10T22:43:27.893Z,95567.68
2023-05-10T22:45:56.555Z,95564.37
2023-05-10T22:48:25.230Z,95500.91
2023-05-10T22:50:53.943Z,95563.00
2023-05-10T22:53:23.827Z,95568.73
2023-05-10T22:55:53.284Z,95562.64
2023-05-10T22:58:22.691Z,95562.07
2023-05-10T23:00:51.505Z,95556.58
2023-05-10T23:03:20.401Z,95556.83
2023-05-10T23:05:49.143Z,95563.00
2023-05-10T23:08:18.598Z,95553.27
2023-05-10T23:10:47.758Z,95552.83
2023-05-10T23:13:16.449Z,95554.68
2023-05-10T23:15:44.936Z,95554.48
2023-05-10T23:18:13.853Z,95552.58
2023-05-10T23:20:45.747Z,95543.59
2023-05-10T23:23:14.419Z,95545.64
2023-05-10T23:25:44.838Z,95542.97
2023-05-10T23:28:13.473Z,95542.13
2023-05-10T23:30:42.081Z,95544.10
2023-05-10T23:33:14.987Z,95539.70
2023-05-10T23:35:44.137Z,95545.52
2023-05-10T23:38:13.037Z,95549.92
2023-05-10T23:40:43.486Z,95544.91
2023-05-10T23:43:13.870Z,95543.42
2023-05-10T23:45:42.756Z,95545.11
2023-05-10T23:48:11.383Z,95536.63
2023-05-10T23:50:44.120Z,95541.12
2023-05-10T23:53:12.888Z,95543.22
2023-05-10T23:58:39.770Z,95539.58
